createdAt,value
2022-10-16T03:55:38.620Z,100510.73
2022-10-16T03:59:05.571Z,100521.28
2022-10-16T04:02:32.293Z,100523.40
2022-10-16T04:05:59.219Z,100522.02
2022-10-16T04:09:26.046Z,100522.52
2022-10-16T04:12:52.786Z,100524.09
2022-10-16T04:16:19.494Z,100528.83
2022-10-16T04:19:46.375Z,100530.94
2022-10-16T04:23:12.914Z,100533.92
2022-10-16T04:26:39.669Z,100537.79
2022-10-16T04:30:08.129Z,100548.50
2022-10-16T04:33:34.805Z,100546.05
2022-10-16T04:37:01.596Z,100549.91
2022-10-16T04:40:28.342Z,100557.98
2022-10-16T04:43:55.629Z,100561.66
2022-10-16T04:47:22.190Z,100560.09
2022-10-16T04:50:53.014Z,100556.40
2022-10-16T04:54:22.035Z,100556.05
2022-10-16T04:57:48.821Z,100557.45
2022-10-16T05:01:15.952Z,100559.04
2022-10-16T05:04:42.523Z,100557.64
2022-10-16T05:08:09.207Z,100549.39
2022-10-16T05:11:36.355Z,100550.27
2022-10-16T05:15:02.974Z,100556.94
2022-10-16T05:18:29.623Z,100565.71
2022-10-16T05:21:56.602Z,100575.89
2022-10-16T05:25:23.616Z,100579.77
2022-10-16T05:28:51.548Z,100575.02
2022-10-16T05:32:19.370Z,100573.09
2022-10-16T05:35:46.290Z,100566.09
2022-10-16T05:39:12.963Z,100579.78
2022-10-16T05:42:39.648Z,100583.64
2022-10-16T05:46:08.061Z,100573.48
2022-10-16T05:49:37.803Z,100575.94
2022-10-16T05:53:07.522Z,100577.52
2022-10-16T05:56:34.445Z,100575.06
2022-10-16T06:00:01.348Z,100584.38
2022-10-16T06:03:29.281Z,100590.89
2022-10-16T06:06:55.989Z,100585.45
2022-10-16T06:10:23.316Z,100590.38
2022-10-16T06:13:52.993Z,100593.02
2022-10-16T06:17:18.294Z,100590.04
2022-10-16T06:20:45.342Z,100600.09
2022-10-16T06:24:13.366Z,100601.52
2022-10-16T06:27:41.521Z,100604.68
2022-10-16T06:31:10.244Z,100607.31
2022-10-16T06:34:38.483Z,100603.11
2022-10-16T06:38:07.379Z,100614.37
2022-10-16T06:41:34.167Z,100630.73
2022-10-16T06:45:02.853Z,100633.55
2022-10-16T06:48:30.761Z,100642.35
2022-10-16T06:51:57.686Z,100647.98
2022-10-16T06:55:25.504Z,100656.44
2022-10-16T06:58:52.636Z,100661.90
2022-10-16T07:02:19.156Z,100668.23
2022-10-16T07:05:46.722Z,100677.55
2022-10-16T07:09:14.571Z,100680.88
2022-10-16T07:12:41.172Z,100677.22
2022-10-16T07:16:13.312Z,100675.27
2022-10-16T07:19:39.999Z,100675.61
2022-10-16T07:23:06.645Z,100676.65
2022-10-16T07:26:35.656Z,100671.70
2022-10-16T07:30:05.212Z,100666.91
2022-10-16T07:33:36.192Z,100667.05
2022-10-16T07:37:02.822Z,100667.73
2022-10-16T07:40:30.084Z,100666.29
2022-10-16T07:43:58.493Z,100675.61
2022-10-16T07:47:25.402Z,100672.45
2022-10-16T07:50:52.663Z,100671.05
2022-10-16T07:54:19.453Z,100680.06
2022-10-16T07:57:46.111Z,100686.59
2022-10-16T08:01:15.267Z,100691.00
2022-10-16T08:04:42.038Z,100701.59
2022-10-16T08:08:08.950Z,100703.88
2022-10-16T08:11:36.203Z,100704.75
2022-10-16T08:15:02.831Z,100706.64
2022-10-16T08:18:31.033Z,100704.50
2022-10-16T08:21:57.939Z,100711.66
2022-10-16T08:25:25.838Z,100708.77
2022-10-16T08:28:54.376Z,100706.41
2022-10-16T08:32:25.283Z,100703.86
2022-10-16T08:35:55.589Z,100713.49
2022-10-16T08:39:22.212Z,100710.63
2022-10-16T08:43:03.145Z,100708.10
2022-10-16T08:46:48.249Z,100709.10
2022-10-16T08:50:25.159Z,100715.38
2022-10-16T08:53:54.976Z,100731.12
2022-10-16T08:57:24.731Z,100731.48
2022-10-16T09:00:55.309Z,100730.14
2022-10-16T09:04:56.914Z,100738.00
2022-10-16T09:08:33.463Z,100744.47
2022-10-16T09:12:07.240Z,100746.61
2022-10-16T09:15:41.992Z,100744.83
2022-10-16T09:19:17.040Z,100738.68
2022-10-16T09:22:44.013Z,100731.84
2022-10-16T09:26:17.204Z,100731.39
2022-10-16T09:29:44.303Z,100730.05
2022-10-16T09:33:14.089Z,100740.13
2022-10-16T09:36:45.070Z,100749.23
2022-10-16T09:40:26.512Z,100748.70
2022-10-16T09:43:57.597Z,100740.06
2022-10-16T09:47:28.026Z,100736.42
2022-10-16T09:51:02.258Z,100741.66
2022-10-16T09:54:28.807Z,100749.45
2022-10-16T09:57:56.666Z,100749.15
2022-10-16T10:01:25.479Z,100749.14
2022-10-16T10:04:57.108Z,100749.10
2022-10-16T10:08:24.139Z,100749.14
2022-10-16T10:11:56.665Z,100755.06
2022-10-16T10:15:25.134Z,100755.77
2022-10-16T10:19:01.774Z,100753.91
2022-10-16T10:22:32.097Z,100759.98
2022-10-16T10:26:05.809Z,100762.33
2022-10-16T10:29:46.915Z,100759.95
2022-10-16T10:33:26.332Z,100754.23
2022-10-16T10:37:01.841Z,100752.73
2022-10-16T10:40:42.169Z,100752.14
2022-10-16T10:44:18.303Z,100753.82
2022-10-16T10:47:55.363Z,100754.67
2022-10-16T10:51:31.195Z,100754.41
2022-10-16T10:55:04.487Z,100759.08
2022-10-16T10:58:58.235Z,100762.91
2022-10-16T11:02:34.623Z,100762.06
2022-10-16T11:06:05.727Z,100751.89
2022-10-16T11:09:38.654Z,100744.91
2022-10-16T11:13:19.708Z,100749.30
2022-10-16T11:16:54.773Z,100749.25
2022-10-16T11:20:25.374Z,100745.24
2022-10-16T11:23:58.502Z,100743.66
2022-10-16T11:27:37.449Z,100739.53
2022-10-16T11:31:11.796Z,100747.69
2022-10-16T11:34:46.527Z,100751.79
2022-10-16T11:38:19.443Z,100744.35
2022-10-16T11:41:51.159Z,100747.62
2022-10-16T11:45:30.828Z,100747.13
2022-10-16T11:49:05.555Z,100752.16
2022-10-16T11:52:41.231Z,100749.33
2022-10-16T11:56:09.235Z,100756.25
2022-10-16T11:59:44.496Z,100762.98
2022-10-16T12:03:22.499Z,100761.53
2022-10-16T12:06:53.935Z,100759.74
2022-10-16T12:10:27.464Z,100759.27
2022-10-16T12:14:05.720Z,100760.73
2022-10-16T12:17:39.128Z,100761.57
2022-10-16T12:21:08.011Z,100758.66
2022-10-16T12:24:41.921Z,100759.45
2022-10-16T12:28:21.584Z,100763.55
2022-10-16T12:31:57.425Z,100767.79
2022-10-16T12:35:28.699Z,100769.23
2022-10-16T12:38:56.902Z,100762.78
2022-10-16T12:42:35.864Z,100765.27
2022-10-16T12:46:23.915Z,100769.42
2022-10-16T12:49:55.012Z,100765.87
2022-10-16T12:53:27.042Z,100770.81
2022-10-16T12:57:22.249Z,100776.67
2022-10-16T13:00:53.256Z,100780.13
2022-10-16T13:04:37.887Z,100786.84
2022-10-16T13:08:23.474Z,100793.16
2022-10-16T13:12:11.642Z,100791.39
2022-10-16T13:15:57.426Z,100791.48
2022-10-16T13:19:31.615Z,100791.80
2022-10-16T13:23:10.493Z,100794.16
2022-10-16T13:26:46.765Z,100800.17
2022-10-16T13:30:19.942Z,100801.21
2022-10-16T13:33:51.704Z,100798.54
2022-10-16T13:37:23.310Z,100802.27
2022-10-16T13:40:55.100Z,100803.75
2022-10-16T13:44:23.282Z,100806.53
2022-10-16T13:47:50.008Z,100815.49
2022-10-16T13:51:19.333Z,100823.45
2022-10-16T13:54:46.013Z,100832.52
2022-10-16T13:58:16.675Z,100840.09
2022-10-16T14:01:45.956Z,100845.20
2022-10-16T14:05:16.176Z,100847.90
2022-10-16T14:08:47.619Z,100854.40
2022-10-16T14:12:15.150Z,100855.77
2022-10-16T14:15:41.810Z,100852.04
2022-10-16T14:19:15.378Z,100859.95
2022-10-16T14:22:43.230Z,100861.23
2022-10-16T14:26:17.109Z,100863.87
2022-10-16T14:29:43.588Z,100864.48
2022-10-16T14:33:25.410Z,100862.01
2022-10-16T14:36:52.494Z,100867.83
2022-10-16T14:40:28.792Z,100875.35
2022-10-16T14:43:57.607Z,100877.19
2022-10-16T14:47:28.111Z,100885.90
2022-10-16T14:50:55.326Z,100885.42
2022-10-16T14:54:22.369Z,100884.35
2022-10-16T14:57:49.677Z,100888.05
2022-10-16T15:01:16.477Z,100892.96
2022-10-16T15:04:43.245Z,100891.70
2022-10-16T15:08:09.865Z,100891.64
2022-10-16T15:11:36.878Z,100897.91
2022-10-16T15:15:03.689Z,100898.30
2022-10-16T15:18:30.419Z,100899.97
2022-10-16T15:21:57.422Z,100904.15
2022-10-16T15:25:35.356Z,100908.66
2022-10-16T15:29:02.294Z,100911.33
2022-10-16T15:36:00.814Z,100910.06
2022-10-16T15:39:27.370Z,100912.30
2022-10-16T15:42:53.885Z,100912.64
2022-10-16T15:46:22.555Z,100913.73
2022-10-16T15:49:49.157Z,100917.80
2022-10-16T15:53:15.608Z,100922.41
2022-10-16T15:56:42.150Z,100927.52
2022-10-16T16:00:12.313Z,100929.07
2022-10-16T16:03:41.782Z,100935.41
2022-10-16T16:07:09.225Z,100938.55
2022-10-16T16:10:35.874Z,100950.85
2022-10-16T16:14:02.669Z,100954.33
2022-10-16T16:17:29.671Z,100955.46
2022-10-16T16:20:56.666Z,100965.95
2022-10-16T16:24:23.255Z,100973.41
2022-10-16T16:27:49.920Z,100974.18
2022-10-16T16:31:16.470Z,100978.63
2022-10-16T16:34:43.132Z,100988.17
2022-10-16T16:38:09.682Z,100994.73
2022-10-16T16:41:36.693Z,101001.41
2022-10-16T16:45:03.813Z,101006.51
2022-10-16T16:48:30.446Z,101020.08
2022-10-16T16:51:57.436Z,101025.17
2022-10-16T16:55:24.418Z,101032.38
2022-10-16T16:58:51.821Z,101039.73
2022-10-16T17:02:18.869Z,101044.45
2022-10-16T17:05:45.485Z,101052.52
2022-10-16T17:09:14.782Z,101051.60
2022-10-16T17:12:41.923Z,101052.79
2022-10-16T17:16:09.881Z,101062.07
2022-10-16T17:19:36.689Z,101067.13
2022-10-16T17:23:03.232Z,101067.09
2022-10-16T17:26:29.953Z,101074.27
2022-10-16T17:29:56.834Z,101078.25
2022-10-16T17:33:23.949Z,101086.13
2022-10-16T17:36:51.014Z,101091.01
2022-10-16T17:40:18.079Z,101091.67
2022-10-16T17:43:45.726Z,101097.26
2022-10-16T17:47:12.475Z,101100.54
2022-10-16T17:50:42.977Z,101103.99
2022-10-16T17:54:10.609Z,101109.03
2022-10-16T17:57:37.264Z,101112.66
2022-10-16T18:01:12.466Z,101116.82
2022-10-16T18:04:39.648Z,101120.77
2022-10-16T18:08:06.434Z,101122.81
2022-10-16T18:11:33.081Z,101130.47
2022-10-16T18:14:59.631Z,101136.02
2022-10-16T18:18:29.528Z,101142.06
2022-10-16T18:21:56.762Z,101140.76
2022-10-16T18:25:23.249Z,101142.79
2022-10-16T18:28:52.884Z,101151.52
2022-10-16T18:32:18.380Z,101160.74
2022-10-16T18:35:45.096Z,101164.54
2022-10-16T18:39:12.996Z,101171.84
2022-10-16T18:42:39.732Z,101183.04
2022-10-16T18:46:08.136Z,101188.61
2022-10-16T18:49:35.712Z,101194.70
2022-10-16T18:53:03.301Z,101197.48
2022-10-16T18:56:31.681Z,101199.20
2022-10-16T18:59:58.720Z,101198.09
2022-10-16T19:03:27.570Z,101203.28
2022-10-16T19:06:56.030Z,101208.80
2022-10-16T19:10:22.621Z,101214.66
2022-10-16T19:13:49.955Z,101216.86
2022-10-16T19:17:16.625Z,101219.09
2022-10-16T19:20:43.792Z,101226.23
2022-10-16T19:24:13.100Z,101225.86
2022-10-16T19:27:40.008Z,101225.10
2022-10-16T19:31:08.372Z,101222.59
2022-10-16T19:34:35.755Z,101229.20
2022-10-16T19:38:02.348Z,101232.65
2022-10-16T19:41:30.583Z,101235.58
2022-10-16T19:44:57.161Z,101240.05
2022-10-16T19:51:56.477Z,101239.55
2022-10-16T19:55:23.251Z,101241.77
2022-10-16T19:58:50.965Z,101241.67
2022-10-16T20:02:17.939Z,101238.98
2022-10-16T20:05:53.006Z,101247.49
2022-10-16T20:09:20.215Z,101254.80
2022-10-16T20:12:47.234Z,101260.19
2022-10-16T20:16:19.201Z,101260.48
2022-10-16T20:19:46.650Z,101269.51
2022-10-16T20:23:14.490Z,101281.54
2022-10-16T20:26:41.946Z,101290.11
2022-10-16T20:30:10.791Z,101291.98
2022-10-16T20:33:38.056Z,101296.71
2022-10-16T20:37:05.249Z,101300.05
2022-10-16T20:40:32.241Z,101305.27
2022-10-16T20:43:59.384Z,101307.16
2022-10-16T20:47:26.971Z,101307.09
2022-10-16T20:50:53.978Z,101317.54
2022-10-16T20:54:21.071Z,101310.95
2022-10-16T20:57:47.922Z,101316.52
2022-10-16T21:01:16.892Z,101323.34
2022-10-16T21:04:43.501Z,101325.79
2022-10-16T21:08:10.295Z,101323.81
2022-10-16T21:11:38.352Z,101316.77
2022-10-16T21:15:20.482Z,101318.66
2022-10-16T21:18:47.123Z,101326.30
2022-10-16T21:22:13.670Z,101329.45
2022-10-16T21:25:40.214Z,101335.39
2022-10-16T21:29:08.696Z,101343.77
2022-10-16T21:32:37.723Z,101340.20
2022-10-16T21:36:12.718Z,101342.61
2022-10-16T21:39:39.451Z,101347.16
2022-10-16T21:43:06.222Z,101346.48
2022-10-16T21:46:35.797Z,101351.64
2022-10-16T21:50:02.609Z,101344.58
2022-10-16T21:53:29.210Z,101341.02
2022-10-16T21:56:56.943Z,101345.48
2022-10-16T22:00:23.927Z,101349.10
2022-10-16T22:03:51.788Z,101354.47
2022-10-16T22:07:19.163Z,101365.80
2022-10-16T22:10:46.860Z,101377.65
2022-10-16T22:14:16.051Z,101378.80
2022-10-16T22:17:42.713Z,101378.90
2022-10-16T22:21:11.216Z,101383.87
2022-10-16T22:24:37.928Z,101385.35
2022-10-16T22:28:04.488Z,101390.20
2022-10-16T22:31:31.251Z,101389.08
2022-10-16T22:34:57.880Z,101392.88
2022-10-16T22:38:24.889Z,101393.83
2022-10-16T22:41:51.508Z,101396.50
2022-10-16T22:45:18.144Z,101397.96
2022-10-16T22:48:45.454Z,101404.88
